sensor_id;sensor_type;location;lat;lon;timestamp;pressure;altitude;pressure_sealevel;temperature;humidity
6435;BME280;3250;42.694;23.278;2023-06-04T00:00:23;94978.56;;;17.32;97.67
6435;BME280;3250;42.694;23.278;2023-06-04T00:02:48;94988.72;;;17.35;97.37
6435;BME280;3250;42.694;23.278;2023-06-04T00:05:14;94980.66;;;17.30;95.85
6435;BME280;3250;42.694;23.278;2023-06-04T00:07:39;94985.81;;;17.37;95.61
6435;BME280;3250;42.694;23.278;2023-06-04T00:10:05;94961.44;;;17.23;96.33
6435;BME280;3250;42.694;23.278;2023-06-04T00:12:31;94946.94;;;17.14;96.23
6435;BME280;3250;42.694;23.278;2023-06-04T00:14:56;94954.19;;;17.19;95.40
6435;BME280;3250;42.694;23.278;2023-06-04T00:17:21;94981.28;;;17.38;95.03
6435;BME280;3250;42.694;23.278;2023-06-04T00:19:47;94985.81;;;17.37;93.98
6435;BME280;3250;42.694;23.278;2023-06-04T00:22:12;94977.63;;;17.22;92.67
6435;BME280;3250;42.694;23.278;2023-06-04T00:24:38;94955.88;;;17.03;93.37
6435;BME280;3250;42.694;23.278;2023-06-04T00:27:08;94964.97;;;17.07;93.96
6435;BME280;3250;42.694;23.278;2023-06-04T00:29:34;94981.38;;;17.21;94.49
6435;BME280;3250;42.694;23.278;2023-06-04T00:31:59;94981.06;;;17.17;92.74
6435;BME280;3250;42.694;23.278;2023-06-04T00:34:25;94974.06;;;17.11;92.22
6435;BME280;3250;42.694;23.278;2023-06-04T00:36:50;94970.09;;;17.14;92.39
6435;BME280;3250;42.694;23.278;2023-06-04T00:39:15;94974.06;;;17.11;91.66
6435;BME280;3250;42.694;23.278;2023-06-04T00:41:41;94978.50;;;17.06;92.83
6435;BME280;3250;42.694;23.278;2023-06-04T00:44:06;94977.66;;;17.00;93.07
6435;BME280;3250;42.694;23.278;2023-06-04T00:46:32;94942.91;;;16.85;92.65
6435;BME280;3250;42.694;23.278;2023-06-04T00:49:01;94968.88;;;17.00;92.14
6435;BME280;3250;42.694;23.278;2023-06-04T00:51:28;94961.38;;;16.96;92.33
6435;BME280;3250;42.694;23.278;2023-06-04T00:53:55;94969.47;;;17.07;92.30
6435;BME280;3250;42.694;23.278;2023-06-04T00:56:20;94967.63;;;17.07;92.81
6435;BME280;3250;42.694;23.278;2023-06-04T00:58:46;94965.22;;;17.06;92.82
6435;BME280;3250;42.694;23.278;2023-06-04T01:04:16;94970.00;;;17.04;93.03
6435;BME280;3250;42.694;23.278;2023-06-04T01:06:50;94971.28;;;17.01;91.96
6435;BME280;3250;42.694;23.278;2023-06-04T01:09:16;94969.88;;;16.93;91.88
6435;BME280;3250;42.694;23.278;2023-06-04T01:11:41;94968.50;;;16.91;92.72
6435;BME280;3250;42.694;23.278;2023-06-04T01:14:08;94969.97;;;16.82;92.75
6435;BME280;3250;42.694;23.278;2023-06-04T01:16:49;94954.31;;;16.64;93.31
6435;BME280;3250;42.694;23.278;2023-06-04T01:21:49;94969.13;;;16.76;94.71
6435;BME280;3250;42.694;23.278;2023-06-04T01:24:17;94971.81;;;16.81;94.38
6435;BME280;3250;42.694;23.278;2023-06-04T01:26:46;94970.47;;;16.79;94.75
6435;BME280;3250;42.694;23.278;2023-06-04T01:29:11;94952.78;;;16.68;94.08
6435;BME280;3250;42.694;23.278;2023-06-04T01:31:38;94956.31;;;16.56;94.14
6435;BME280;3250;42.694;23.278;2023-06-04T01:34:03;94968.81;;;16.56;94.91
6435;BME280;3250;42.694;23.278;2023-06-04T01:36:32;94974.59;;;16.53;95.01
6435;BME280;3250;42.694;23.278;2023-06-04T01:38:57;94985.50;;;16.51;94.97
6435;BME280;3250;42.694;23.278;2023-06-04T01:41:24;94975.09;;;16.50;95.51
6435;BME280;3250;42.694;23.278;2023-06-04T01:43:50;94981.53;;;16.54;95.27
6435;BME280;3250;42.694;23.278;2023-06-04T01:46:15;94981.63;;;16.42;95.44
6435;BME280;3250;42.694;23.278;2023-06-04T01:48:41;94969.97;;;16.27;95.85
6435;BME280;3250;42.694;23.278;2023-06-04T01:51:06;94990.31;;;16.38;96.02
6435;BME280;3250;42.694;23.278;2023-06-04T01:53:32;94979.47;;;16.39;96.90
6435;BME280;3250;42.694;23.278;2023-06-04T01:55:57;94991.59;;;16.52;96.24
6435;BME280;3250;42.694;23.278;2023-06-04T01:58:23;94987.72;;;16.59;95.64
6435;BME280;3250;42.694;23.278;2023-06-04T02:00:52;94986.22;;;16.64;95.03
6435;BME280;3250;42.694;23.278;2023-06-04T02:03:18;94993.13;;;16.65;94.94
6435;BME280;3250;42.694;23.278;2023-06-04T02:05:44;94957.78;;;16.47;95.72
6435;BME280;3250;42.694;23.278;2023-06-04T02:08:12;94963.09;;;16.47;95.11
6435;BME280;3250;42.694;23.278;2023-06-04T02:10:37;94986.44;;;16.62;94.80
6435;BME280;3250;42.694;23.278;2023-06-04T02:13:03;94998.84;;;16.73;94.86
6435;BME280;3250;42.694;23.278;2023-06-04T02:15:29;94997.41;;;16.66;95.10
6435;BME280;3250;42.694;23.278;2023-06-04T02:17:57;95009.94;;;16.53;95.00
6435;BME280;3250;42.694;23.278;2023-06-04T02:20:25;95008.09;;;16.54;95.59
6435;BME280;3250;42.694;23.278;2023-06-04T02:22:51;95010.69;;;16.66;95.44
6435;BME280;3250;42.694;23.278;2023-06-04T02:25:17;95012.47;;;16.60;94.78
6435;BME280;3250;42.694;23.278;2023-06-04T02:27:43;95011.66;;;16.59;95.07
6435;BME280;3250;42.694;23.278;2023-06-04T02:30:09;95010.59;;;16.60;94.61
6435;BME280;3250;42.694;23.278;2023-06-04T02:32:34;95024.56;;;16.68;95.14
6435;BME280;3250;42.694;23.278;2023-06-04T02:35:01;95010.75;;;16.54;95.28
6435;BME280;3250;42.694;23.278;2023-06-04T02:37:27;95026.47;;;16.55;95.92
6435;BME280;3250;42.694;23.278;2023-06-04T02:39:52;95024.03;;;16.54;95.88
6435;BME280;3250;42.694;23.278;2023-06-04T02:42:18;95024.47;;;16.63;95.71
6435;BME280;3250;42.694;23.278;2023-06-04T02:44:43;95030.69;;;16.68;95.34
6435;BME280;3250;42.694;23.278;2023-06-04T02:47:09;95029.59;;;16.69;95.31
6435;BME280;3250;42.694;23.278;2023-06-04T02:49:34;95032.22;;;16.64;95.64
6435;BME280;3250;42.694;23.278;2023-06-04T02:52:00;95031.97;;;16.66;95.72
6435;BME280;3250;42.694;23.278;2023-06-04T02:54:25;95033.06;;;16.70;95.39
6435;BME280;3250;42.694;23.278;2023-06-04T02:56:50;95028.88;;;16.57;95.97
6435;BME280;3250;42.694;23.278;2023-06-04T02:59:16;95018.44;;;16.50;95.96
6435;BME280;3250;42.694;23.278;2023-06-04T03:01:42;95049.28;;;16.68;96.01
6435;BME280;3250;42.694;23.278;2023-06-04T03:04:07;95047.16;;;16.70;95.91
6435;BME280;3250;42.694;23.278;2023-06-04T03:06:35;95047.25;;;16.75;95.95
6435;BME280;3250;42.694;23.278;2023-06-04T03:09:03;95043.28;;;16.78;96.03
6435;BME280;3250;42.694;23.278;2023-06-04T03:11:29;95044.19;;;16.83;96.45
6435;BME280;3250;42.694;23.278;2023-06-04T03:13:54;95036.50;;;16.87;95.32
6435;BME280;3250;42.694;23.278;2023-06-04T03:16:20;95043.72;;;16.86;95.23
6435;BME280;3250;42.694;23.278;2023-06-04T03:18:46;95028.22;;;16.83;95.99
6435;BME280;3250;42.694;23.278;2023-06-04T03:21:11;95025.81;;;16.82;95.20
6435;BME280;3250;42.694;23.278;2023-06-04T03:23:37;95039.81;;;16.94;95.52
6435;BME280;3250;42.694;23.278;2023-06-04T03:26:03;95046.47;;;16.96;95.06
6435;BME280;3250;42.694;23.278;2023-06-04T03:28:29;95043.00;;;16.96;95.48
6435;BME280;3250;42.694;23.278;2023-06-04T03:30:55;95022.59;;;16.80;95.52
6435;BME280;3250;42.694;23.278;2023-06-04T03:33:20;95052.38;;;16.98;94.96
6435;BME280;3250;42.694;23.278;2023-06-04T03:35:46;95058.72;;;16.97;95.15
6435;BME280;3250;42.694;23.278;2023-06-04T03:38:13;95058.97;;;16.96;94.77
6435;BME280;3250;42.694;23.278;2023-06-04T03:40:38;95053.28;;;16.87;95.56
6435;BME280;3250;42.694;23.278;2023-06-04T03:43:04;95055.94;;;16.87;95.90
6435;BME280;3250;42.694;23.278;2023-06-04T03:45:30;95064.19;;;16.86;95.50
6435;BME280;3250;42.694;23.278;2023-06-04T03:47:55;95057.25;;;16.85;96.11
6435;BME280;3250;42.694;23.278;2023-06-04T03:50:21;95067.06;;;16.84;96.02
6435;BME280;3250;42.694;23.278;2023-06-04T03:52:48;95069.97;;;16.83;96.70
6435;BME280;3250;42.694;23.278;2023-06-04T03:55:13;95066.56;;;16.87;96.51
6435;BME280;3250;42.694;23.278;2023-06-04T03:57:39;95066.03;;;16.85;96.68
6435;BME280;3250;42.694;23.278;2023-06-04T04:00:06;95069.97;;;16.83;96.95
6435;BME280;3250;42.694;23.278;2023-06-04T04:02:32;95048.22;;;16.69;97.27
6435;BME280;3250;42.694;23.278;2023-06-04T04:04:57;95071.44;;;16.74;97.82
6435;BME280;3250;42.694;23.278;2023-06-04T04:07:23;95073.28;;;16.73;97.96
6435;BME280;3250;42.694;23.278;2023-06-04T04:09:50;95068.59;;;16.80;97.76
6435;BME280;3250;42.694;23.278;2023-06-04T04:12:16;95073.19;;;16.85;96.89
6435;BME280;3250;42.694;23.278;2023-06-04T04:14:42;95041.63;;;16.72;96.94
6435;BME280;3250;42.694;23.278;2023-06-04T04:17:07;95073.81;;;16.92;97.00
6435;BME280;3250;42.694;23.278;2023-06-04T04:19:33;95079.94;;;16.92;96.29
6435;BME280;3250;42.694;23.278;2023-06-04T04:21:58;95079.16;;;16.92;96.60
6435;BME280;3250;42.694;23.278;2023-06-04T04:24:27;95076.41;;;16.87;97.27
6435;BME280;3250;42.694;23.278;2023-06-04T04:26:53;95081.81;;;16.92;96.71
6435;BME280;3250;42.694;23.278;2023-06-04T04:29:20;95077.28;;;16.92;96.47
6435;BME280;3250;42.694;23.278;2023-06-04T04:31:49;95078.09;;;16.93;96.87
6435;BME280;3250;42.694;23.278;2023-06-04T04:34:14;95074.06;;;16.90;97.22
6435;BME280;3250;42.694;23.278;2023-06-04T04:36:40;95073.03;;;16.91;96.34
6435;BME280;3250;42.694;23.278;2023-06-04T04:39:05;95090.00;;;17.07;96.02
6435;BME280;3250;42.694;23.278;2023-06-04T04:41:31;95073.66;;;16.98;96.15
6435;BME280;3250;42.694;23.278;2023-06-04T04:44:03;95077.34;;;16.97;96.59
6435;BME280;3250;42.694;23.278;2023-06-04T04:46:30;95083.31;;;17.05;97.17
6435;BME280;3250;42.694;23.278;2023-06-04T04:48:56;95088.47;;;17.11;96.89
6435;BME280;3250;42.694;23.278;2023-06-04T04:51:21;95092.22;;;17.15;96.54
6435;BME280;3250;42.694;23.278;2023-06-04T04:53:47;95076.78;;;17.12;96.68
6435;BME280;3250;42.694;23.278;2023-06-04T04:56:12;95086.25;;;17.25;96.86
6435;BME280;3250;42.694;23.278;2023-06-04T04:58:38;95075.03;;;17.23;96.94
6435;BME280;3250;42.694;23.278;2023-06-04T05:01:03;95098.41;;;17.38;96.96
6435;BME280;3250;42.694;23.278;2023-06-04T05:03:29;95078.75;;;17.22;95.13
6435;BME280;3250;42.694;23.278;2023-06-04T05:05:54;95094.97;;;17.42;95.37
6435;BME280;3250;42.694;23.278;2023-06-04T05:08:19;95098.41;;;17.38;94.14
6435;BME280;3250;42.694;23.278;2023-06-04T05:10:45;95092.00;;;17.39;92.76
6435;BME280;3250;42.694;23.278;2023-06-04T05:13:11;95063.84;;;17.21;93.74
6435;BME280;3250;42.694;23.278;2023-06-04T05:15:36;95081.25;;;17.28;94.67
6435;BME280;3250;42.694;23.278;2023-06-04T05:18:02;95100.63;;;17.46;94.71
6435;BME280;3250;42.694;23.278;2023-06-04T05:20:29;95098.59;;;17.53;93.30
6435;BME280;3250;42.694;23.278;2023-06-04T05:22:55;95103.00;;;17.47;91.64
6435;BME280;3250;42.694;23.278;2023-06-04T05:25:20;95105.94;;;17.46;91.62
6435;BME280;3250;42.694;23.278;2023-06-04T05:27:46;95104.00;;;17.41;92.86
6435;BME280;3250;42.694;23.278;2023-06-04T05:30:14;95102.47;;;17.45;92.59
6435;BME280;3250;42.694;23.278;2023-06-04T05:32:41;95098.81;;;17.51;92.77
6435;BME280;3250;42.694;23.278;2023-06-04T05:35:07;95106.56;;;17.53;91.87
6435;BME280;3250;42.694;23.278;2023-06-04T05:37:33;95088.72;;;17.31;92.18
6435;BME280;3250;42.694;23.278;2023-06-04T05:39:59;95109.34;;;17.41;92.04
6435;BME280;3250;42.694;23.278;2023-06-04T05:42:25;95070.66;;;17.12;92.19
6435;BME280;3250;42.694;23.278;2023-06-04T05:44:51;95113.81;;;17.35;91.92
6435;BME280;3250;42.694;23.278;2023-06-04T05:47:17;95117.03;;;17.38;91.92
6435;BME280;3250;42.694;23.278;2023-06-04T05:49:43;95125.38;;;17.46;91.90
6435;BME280;3250;42.694;23.278;2023-06-04T05:52:09;95099.19;;;17.38;91.05
6435;BME280;3250;42.694;23.278;2023-06-04T05:54:35;95128.44;;;17.55;90.25
6435;BME280;3250;42.694;23.278;2023-06-04T05:57:02;95122.22;;;17.49;90.45
6435;BME280;3250;42.694;23.278;2023-06-04T05:59:28;95132.06;;;17.49;89.64
6435;BME280;3250;42.694;23.278;2023-06-04T06:01:54;95133.06;;;17.43;88.55
6435;BME280;3250;42.694;23.278;2023-06-04T06:04:20;95136.53;;;17.43;88.75
6435;BME280;3250;42.694;23.278;2023-06-04T06:06:45;95139.66;;;17.40;89.33
6435;BME280;3250;42.694;23.278;2023-06-04T06:09:12;95135.78;;;17.48;89.59
6435;BME280;3250;42.694;23.278;2023-06-04T06:11:37;95137.47;;;17.54;88.96
6435;BME280;3250;42.694;23.278;2023-06-04T06:14:03;95141.78;;;17.60;89.05
6435;BME280;3250;42.694;23.278;2023-06-04T06:16:28;95148.34;;;17.69;89.46
6435;BME280;3250;42.694;23.278;2023-06-04T06:18:54;95086.75;;;17.44;88.00
6435;BME280;3250;42.694;23.278;2023-06-04T06:21:19;95138.84;;;17.78;87.55
6435;BME280;3250;42.694;23.278;2023-06-04T06:23:45;95126.63;;;17.82;87.46
6435;BME280;3250;42.694;23.278;2023-06-04T06:26:11;95144.22;;;18.05;87.72
6435;BME280;3250;42.694;23.278;2023-06-04T06:28:38;95135.44;;;18.04;88.37
6435;BME280;3250;42.694;23.278;2023-06-04T06:31:04;95138.72;;;18.17;86.97
6435;BME280;3250;42.694;23.278;2023-06-04T06:33:29;95140.75;;;18.04;85.69
6435;BME280;3250;42.694;23.278;2023-06-04T06:35:56;95143.22;;;18.11;86.66
6435;BME280;3250;42.694;23.278;2023-06-04T06:38:25;95118.19;;;18.12;86.13
6435;BME280;3250;42.694;23.278;2023-06-04T06:40:51;95133.72;;;18.20;85.57
6435;BME280;3250;42.694;23.278;2023-06-04T06:43:16;95142.72;;;18.41;85.40
6435;BME280;3250;42.694;23.278;2023-06-04T06:45:41;95154.94;;;18.59;83.75
6435;BME280;3250;42.694;23.278;2023-06-04T06:48:07;95153.09;;;18.64;82.73
6435;BME280;3250;42.694;23.278;2023-06-04T06:50:32;95157.13;;;18.67;83.60
6435;BME280;3250;42.694;23.278;2023-06-04T06:53:01;95131.97;;;18.58;83.43
6435;BME280;3250;42.694;23.278;2023-06-04T06:55:26;95157.72;;;18.74;82.97
6435;BME280;3250;42.694;23.278;2023-06-04T06:57:51;95141.66;;;18.69;82.91
6435;BME280;3250;42.694;23.278;2023-06-04T07:00:17;95158.34;;;18.86;83.29
6435;BME280;3250;42.694;23.278;2023-06-04T07:02:43;95160.75;;;18.88;82.33
6435;BME280;3250;42.694;23.278;2023-06-04T07:05:09;95165.03;;;18.89;80.75
6435;BME280;3250;42.694;23.278;2023-06-04T07:07:34;95157.84;;;18.89;81.21
6435;BME280;3250;42.694;23.278;2023-06-04T07:10:00;95167.22;;;18.92;81.49
6435;BME280;3250;42.694;23.278;2023-06-04T07:12:26;95148.75;;;18.85;81.14
6435;BME280;3250;42.694;23.278;2023-06-04T07:14:51;95156.81;;;18.95;80.84
6435;BME280;3250;42.694;23.278;2023-06-04T07:17:16;95179.81;;;19.01;80.95
6435;BME280;3250;42.694;23.278;2023-06-04T07:19:42;95167.72;;;18.89;80.85
6435;BME280;3250;42.694;23.278;2023-06-04T07:22:07;95179.03;;;19.01;83.27
6435;BME280;3250;42.694;23.278;2023-06-04T07:24:32;95180.81;;;18.95;82.10
6435;BME280;3250;42.694;23.278;2023-06-04T07:26:58;95175.22;;;18.92;83.22
6435;BME280;3250;42.694;23.278;2023-06-04T07:29:23;95181.25;;;19.14;83.16
6435;BME280;3250;42.694;23.278;2023-06-04T07:31:49;95187.44;;;19.19;82.10
6435;BME280;3250;42.694;23.278;2023-06-04T07:34:14;95189.25;;;19.14;82.22
6435;BME280;3250;42.694;23.278;2023-06-04T07:36:40;95182.94;;;19.25;82.79
6435;BME280;3250;42.694;23.278;2023-06-04T07:39:05;95199.75;;;19.26;81.95
6435;BME280;3250;42.694;23.278;2023-06-04T07:41:31;95189.81;;;19.16;82.98
6435;BME280;3250;42.694;23.278;2023-06-04T07:43:56;95173.31;;;19.24;82.62
6435;BME280;3250;42.694;23.278;2023-06-04T07:46:21;95189.78;;;19.48;82.91
6435;BME280;3250;42.694;23.278;2023-06-04T07:48:47;95198.69;;;19.64;81.59
6435;BME280;3250;42.694;23.278;2023-06-04T07:51:13;95200.34;;;19.70;80.17
6435;BME280;3250;42.694;23.278;2023-06-04T07:53:39;95199.16;;;19.55;81.88
6435;BME280;3250;42.694;23.278;2023-06-04T07:56:05;95203.78;;;19.65;81.99
6435;BME280;3250;42.694;23.278;2023-06-04T07:58:31;95181.22;;;19.46;80.25
6435;BME280;3250;42.694;23.278;2023-06-04T08:00:57;95205.94;;;19.68;82.40
6435;BME280;3250;42.694;23.278;2023-06-04T08:03:22;95177.31;;;19.64;81.26
6435;BME280;3250;42.694;23.278;2023-06-04T08:05:48;95215.19;;;20.03;80.54
6435;BME280;3250;42.694;23.278;2023-06-04T08:08:13;95208.53;;;20.10;81.42
6435;BME280;3250;42.694;23.278;2023-06-04T08:10:39;95201.88;;;20.18;79.47
6435;BME280;3250;42.694;23.278;2023-06-04T08:13:05;95182.00;;;19.98;77.57
6435;BME280;3250;42.694;23.278;2023-06-04T08:15:30;95215.50;;;20.11;77.69
6435;BME280;3250;42.694;23.278;2023-06-04T08:17:56;95172.88;;;19.79;78.29
6435;BME280;3250;42.694;23.278;2023-06-04T08:20:24;95192.19;;;19.96;78.22
6435;BME280;3250;42.694;23.278;2023-06-04T08:22:50;95217.91;;;20.18;78.35
6435;BME280;3250;42.694;23.278;2023-06-04T08:25:16;95219.22;;;20.05;78.43
6435;BME280;3250;42.694;23.278;2023-06-04T08:27:41;95231.59;;;20.26;78.54
6435;BME280;3250;42.694;23.278;2023-06-04T08:30:08;95223.81;;;20.25;77.76
6435;BME280;3250;42.694;23.278;2023-06-04T08:32:34;95222.66;;;20.01;77.40
6435;BME280;3250;42.694;23.278;2023-06-04T08:34:59;95199.41;;;19.96;79.14
6435;BME280;3250;42.694;23.278;2023-06-04T08:37:25;95221.69;;;20.22;78.34
6435;BME280;3250;42.694;23.278;2023-06-04T08:39:50;95212.63;;;20.33;79.56
6435;BME280;3250;42.694;23.278;2023-06-04T08:42:22;95221.81;;;20.47;77.75
6435;BME280;3250;42.694;23.278;2023-06-04T08:44:51;95218.06;;;20.58;75.60
6435;BME280;3250;42.694;23.278;2023-06-04T08:47:19;95233.06;;;20.49;75.61
6435;BME280;3250;42.694;23.278;2023-06-04T08:49:49;95212.94;;;20.42;77.21
6435;BME280;3250;42.694;23.278;2023-06-04T08:52:15;95232.53;;;20.67;76.10
6435;BME280;3250;42.694;23.278;2023-06-04T08:54:41;95230.44;;;20.75;75.95
6435;BME280;3250;42.694;23.278;2023-06-04T08:57:08;95242.22;;;20.84;75.58
6435;BME280;3250;42.694;23.278;2023-06-04T08:59:34;95219.97;;;20.58;76.48
6435;BME280;3250;42.694;23.278;2023-06-04T09:02:01;95152.63;;;19.93;75.40
6435;BME280;3250;42.694;23.278;2023-06-04T09:04:27;95252.97;;;20.26;76.55
6435;BME280;3250;42.694;23.278;2023-06-04T09:06:54;95241.94;;;20.08;77.42
6435;BME280;3250;42.694;23.278;2023-06-04T09:09:21;95220.53;;;19.98;77.52
6435;BME280;3250;42.694;23.278;2023-06-04T09:11:51;95248.31;;;20.02;76.85
6435;BME280;3250;42.694;23.278;2023-06-04T09:14:18;95243.53;;;20.04;77.85
6435;BME280;3250;42.694;23.278;2023-06-04T09:16:53;95226.84;;;19.81;77.51
6435;BME280;3250;42.694;23.278;2023-06-04T09:19:20;95220.72;;;19.86;78.30
6435;BME280;3250;42.694;23.278;2023-06-04T09:21:51;95249.75;;;20.19;76.67
6435;BME280;3250;42.694;23.278;2023-06-04T09:24:18;95244.41;;;20.24;77.11
6435;BME280;3250;42.694;23.278;2023-06-04T09:26:43;95232.13;;;20.23;77.14
6435;BME280;3250;42.694;23.278;2023-06-04T09:29:09;95206.41;;;20.17;76.14
6435;BME280;3250;42.694;23.278;2023-06-04T09:31:34;95245.06;;;20.52;76.22
6435;BME280;3250;42.694;23.278;2023-06-04T09:34:03;95243.25;;;20.62;73.54
6435;BME280;3250;42.694;23.278;2023-06-04T09:36:32;95247.47;;;20.43;73.72
6435;BME280;3250;42.694;23.278;2023-06-04T09:38:58;95228.50;;;20.55;73.96
6435;BME280;3250;42.694;23.278;2023-06-04T09:41:25;95254.75;;;20.68;74.05
6435;BME280;3250;42.694;23.278;2023-06-04T09:43:59;95217.84;;;20.65;73.21
6435;BME280;3250;42.694;23.278;2023-06-04T09:46:25;95235.94;;;20.38;73.11
6435;BME280;3250;42.694;23.278;2023-06-04T09:48:59;95235.16;;;20.42;73.52
6435;BME280;3250;42.694;23.278;2023-06-04T09:51:25;95241.81;;;20.34;73.47
6435;BME280;3250;42.694;23.278;2023-06-04T09:54:02;95235.63;;;20.29;74.66
6435;BME280;3250;42.694;23.278;2023-06-04T09:56:28;95241.59;;;20.51;74.47
6435;BME280;3250;42.694;23.278;2023-06-04T09:58:57;95243.22;;;20.52;74.29
6435;BME280;3250;42.694;23.278;2023-06-04T10:01:25;95236.22;;;20.36;74.35
6435;BME280;3250;42.694;23.278;2023-06-04T10:03:52;95241.91;;;20.65;74.54
6435;BME280;3250;42.694;23.278;2023-06-04T10:06:19;95245.44;;;20.91;72.22
6435;BME280;3250;42.694;23.278;2023-06-04T10:08:49;95224.84;;;20.96;72.66
6435;BME280;3250;42.694;23.278;2023-06-04T10:11:31;95260.19;;;20.98;71.75
6435;BME280;3250;42.694;23.278;2023-06-04T10:14:02;95239.53;;;20.94;72.86
6435;BME280;3250;42.694;23.278;2023-06-04T10:16:30;95242.28;;;21.24;73.80
6435;BME280;3250;42.694;23.278;2023-06-04T10:18:57;95247.66;;;21.34;72.19
6435;BME280;3250;42.694;23.278;2023-06-04T10:21:24;95228.31;;;21.02;71.14
6435;BME280;3250;42.694;23.278;2023-06-04T10:23:51;95241.22;;;21.25;76.04
6435;BME280;3250;42.694;23.278;2023-06-04T10:26:17;95240.13;;;21.36;70.61
6435;BME280;3250;42.694;23.278;2023-06-04T10:28:43;95210.41;;;21.33;72.69
6435;BME280;3250;42.694;23.278;2023-06-04T10:31:09;95250.31;;;21.29;70.06
6435;BME280;3250;42.694;23.278;2023-06-04T10:33:35;95246.84;;;21.29;70.57
6435;BME280;3250;42.694;23.278;2023-06-04T10:36:23;95240.66;;;21.28;71.30
6435;BME280;3250;42.694;23.278;2023-06-04T10:38:54;95232.09;;;21.41;72.86
6435;BME280;3250;42.694;23.278;2023-06-04T10:41:20;95220.88;;;21.44;72.25
6435;BME280;3250;42.694;23.278;2023-06-04T10:43:48;95203.16;;;21.13;70.20
6435;BME280;3250;42.694;23.278;2023-06-04T10:46:15;95245.50;;;21.31;70.07
6435;BME280;3250;42.694;23.278;2023-06-04T10:48:59;95238.53;;;21.25;69.90
6435;BME280;3250;42.694;23.278;2023-06-04T10:51:32;95232.91;;;21.22;70.12
6435;BME280;3250;42.694;23.278;2023-06-04T10:53:59;95238.81;;;21.19;70.21
6435;BME280;3250;42.694;23.278;2023-06-04T10:56:29;95169.69;;;20.75;70.08
6435;BME280;3250;42.694;23.278;2023-06-04T10:58:57;95193.75;;;20.85;71.78
6435;BME280;3250;42.694;23.278;2023-06-04T11:01:29;95232.88;;;21.06;72.11
6435;BME280;3250;42.694;23.278;2023-06-04T11:03:57;95197.78;;;20.83;72.12
6435;BME280;3250;42.694;23.278;2023-06-04T11:06:22;95235.81;;;21.15;72.46
6435;BME280;3250;42.694;23.278;2023-06-04T11:09:02;95190.84;;;20.97;71.44
6435;BME280;3250;42.694;23.278;2023-06-04T11:11:27;95185.75;;;20.75;71.08
6435;BME280;3250;42.694;23.278;2023-06-04T11:13:54;95175.84;;;20.65;71.85
6435;BME280;3250;42.694;23.278;2023-06-04T11:16:20;95229.66;;;20.99;72.96
6435;BME280;3250;42.694;23.278;2023-06-04T11:18:54;95205.81;;;20.78;72.50
6435;BME280;3250;42.694;23.278;2023-06-04T11:21:21;95179.31;;;20.71;73.05
6435;BME280;3250;42.694;23.278;2023-06-04T11:23:46;95166.72;;;20.77;72.51
6435;BME280;3250;42.694;23.278;2023-06-04T11:26:11;95193.25;;;20.98;72.88
6435;BME280;3250;42.694;23.278;2023-06-04T11:28:38;95231.31;;;21.26;71.16
6435;BME280;3250;42.694;23.278;2023-06-04T11:31:05;95204.75;;;21.14;73.01
6435;BME280;3250;42.694;23.278;2023-06-04T11:33:47;95235.88;;;21.35;71.60
6435;BME280;3250;42.694;23.278;2023-06-04T11:36:28;95216.28;;;21.20;72.41
6435;BME280;3250;42.694;23.278;2023-06-04T11:38:58;95217.66;;;21.32;72.36
6435;BME280;3250;42.694;23.278;2023-06-04T11:41:30;95208.53;;;21.23;71.50
6435;BME280;3250;42.694;23.278;2023-06-04T11:43:57;95204.28;;;21.27;71.27
6435;BME280;3250;42.694;23.278;2023-06-04T11:46:23;95190.31;;;21.10;70.74
6435;BME280;3250;42.694;23.278;2023-06-04T11:48:51;95221.91;;;21.28;70.61
6435;BME280;3250;42.694;23.278;2023-06-04T11:51:17;95225.38;;;21.03;70.57
6435;BME280;3250;42.694;23.278;2023-06-04T11:53:43;95187.31;;;20.56;72.01
6435;BME280;3250;42.694;23.278;2023-06-04T11:56:08;95222.13;;;20.76;72.53
6435;BME280;3250;42.694;23.278;2023-06-04T11:58:34;95219.44;;;20.66;71.68
6435;BME280;3250;42.694;23.278;2023-06-04T12:01:00;95228.78;;;20.68;72.84
6435;BME280;3250;42.694;23.278;2023-06-04T12:03:41;95198.00;;;20.46;72.57
6435;BME280;3250;42.694;23.278;2023-06-04T12:06:18;95224.00;;;20.65;72.64
6435;BME280;3250;42.694;23.278;2023-06-04T12:08:51;95225.59;;;20.66;71.96
6435;BME280;3250;42.694;23.278;2023-06-04T12:11:31;95214.59;;;20.53;73.40
6435;BME280;3250;42.694;23.278;2023-06-04T12:13:59;95214.06;;;20.61;72.14
6435;BME280;3250;42.694;23.278;2023-06-04T12:16:25;95173.63;;;20.37;71.84
6435;BME280;3250;42.694;23.278;2023-06-04T12:18:51;95238.97;;;20.71;73.44
6435;BME280;3250;42.694;23.278;2023-06-04T12:21:18;95173.63;;;20.37;73.31
6435;BME280;3250;42.694;23.278;2023-06-04T12:23:45;95144.66;;;20.14;72.65
6435;BME280;3250;42.694;23.278;2023-06-04T12:26:20;95168.44;;;20.15;73.44
6435;BME280;3250;42.694;23.278;2023-06-04T12:29:20;95223.13;;;20.45;74.75
6435;BME280;3250;42.694;23.278;2023-06-04T12:31:45;95232.47;;;20.42;74.98
6435;BME280;3250;42.694;23.278;2023-06-04T12:34:13;95206.69;;;20.16;75.57
6435;BME280;3250;42.694;23.278;2023-06-04T12:36:39;95199.66;;;20.00;76.75
6435;BME280;3250;42.694;23.278;2023-06-04T12:39:06;95228.63;;;20.18;78.11
6435;BME280;3250;42.694;23.278;2023-06-04T12:41:32;95229.72;;;20.27;77.70
6435;BME280;3250;42.694;23.278;2023-06-04T12:43:59;95233.22;;;20.32;77.95
6435;BME280;3250;42.694;23.278;2023-06-04T12:46:25;95230.28;;;20.29;79.63
6435;BME280;3250;42.694;23.278;2023-06-04T12:48:51;95197.84;;;20.05;79.94
6435;BME280;3250;42.694;23.278;2023-06-04T12:51:17;95226.00;;;20.28;80.74
6435;BME280;3250;42.694;23.278;2023-06-04T12:53:43;95220.63;;;20.33;79.65
6435;BME280;3250;42.694;23.278;2023-06-04T12:56:09;95212.34;;;20.29;79.54
6435;BME280;3250;42.694;23.278;2023-06-04T12:58:34;95203.84;;;20.38;79.61
6435;BME280;3250;42.694;23.278;2023-06-04T13:01:00;95202.72;;;20.28;78.71
6435;BME280;3250;42.694;23.278;2023-06-04T13:03:26;95224.44;;;20.42;77.85
6435;BME280;3250;42.694;23.278;2023-06-04T13:05:52;95214.50;;;20.32;76.78
6435;BME280;3250;42.694;23.278;2023-06-04T13:08:19;95211.31;;;20.36;76.24
6435;BME280;3250;42.694;23.278;2023-06-04T13:10:45;95198.25;;;20.39;78.08
6435;BME280;3250;42.694;23.278;2023-06-04T13:13:11;95226.66;;;20.65;76.37